Share

Hibbing, MN

RAWS HIBBING MN US (MHIBM5) Elev 1350 ft | 47.39 °N, 92.83 °W | Change Station
Active Advisory: Winter Weather Advisory Active Notice: Record Report

Current weather conditions updated 49 minutes ago

Scattered Clouds
Scattered Clouds
37 °F
Feels Like 30 °F
N
9
Wind Variable Wind from ESE
Gusts 17.0 mph
Sunrise 6:17 AM
Sunset 8:05 PM
Moon Waning Gibbous

Tomorrow is forecast to be Warmer than today. Morning wintry mix.

Pressure 30.27 in
Visibility 10.0 miles
Clouds Scattered Clouds 10000 ft
Windchill 30 °F
Dew Point 17 °F
Humidity 43%
Rainfall 0.00 in
Snow Depth Not available.
UV 0 out of 16
Pollen 7.30 out of 12
Air Quality Not available.
Flu Activity Sporadic
METAR KCQM 190135Z AUTO 13006G16KT 10SM SCT100 03/M06 A3027 RMK AO2

More Conditions Fewer Conditions

Pressure 30.27 in
Visibility 10.0 miles
Clouds Scattered Clouds 10000 ft
Windchill 30 °F
Dew Point 17 °F
Humidity 43%
Rainfall 0.00 in
Snow Depth Not available.
UV 0 out of 16
Pollen 7.30 out of 12
Air Quality Not available.
Flu Activity Sporadic
METAR KCQM 190135Z AUTO 13006G16KT 10SM SCT100 03/M06 A3027 RMK AO2

More Conditions Fewer Conditions

10-Day Weather Forecast

Almanac

Astronomy

Apr. 18, 2014 Rise Set
Actual Time 6:17 AM CDT 8:05 PM CDT
Civil Twilight 5:45 AM CDT 8:37 PM CDT
Nautical Twilight 5:05 AM CDT 9:17 PM CDT
Astronomical Twilight 4:21 AM CDT 10:01 PM CDT
Moon No Moon Rise 8:31 AM CDT (4/18)
Length of Visible Light 14h 52m
Length of Day
13h 47m
Tomorrow will be 3m 14s longer.
Waning Gibbous, 84% of the Moon is Illuminated
Today
Waning Gibbous
Apr 22
Last Quarter
Apr 29
New
May 6
First Quarter
May 14
Full

Today's Extremes

State Highs State Lows

Community

  • Cloudy spring view
    Cloudy spring view
  • Old barn
    Old barn
  • What's for Lunch?
    What's for Lunch?
  • SUNRISE THROUGH THE TREES.
    SUNRISE THROUGH THE TREES.
  • Dog Wood Blossoms
    Dog Wood Blossoms

WunderPhotos

Upload Photos

1,702,570 photos uploaded!

WunderBlogs® & News

Nearby

Snow Depth

Station Depth Elevation
No new snow has been reported.

Coastal Water Temperatures

Place Temperature
No Stations Reporting

Earthquake Activity

City Distance Mag. Time & Date
No recent earthquake activity has been reported nearby.
Minimum magnitude displayed is 2.5.

Nearby Weather Stations

Station Location Temp. Windchill Dew Point Humidity Wind Precip. Elev Updated Type
RAWS HIBBING MN, Hibbing, MN 37 °F 30 °F 17 °F 43% ESE  at  9 mph 0.00 in / hr 1350 ft 8:07 PM CDT MADIS

Show More Stations Show Fewer Stations

What do you think?

We're not finished. Please let us know what you like, what you don't like, and what you are still missing.